Terminal Aerodrome Forecast
Issued by NWS Glasgow, MT

Home | Current Version | Previous Version | Text Only | Print | Product List | Glossary On
Versions: 1 2 3 4 5 6 7 8 9 10 11 12 13 14 15 16
000
FTUS45 KGGW 032000 AAA
TAFGGW
TAF AMD
KGGW 032015Z 0320/0418 12008KT 6SM FU SCT080
     FM040300 12010KT 3SM FU BKN200=

USA.gov is the U.S. government's official web portal to all federal, state and local government web resources and services.